| time (UTC) | temp F | wind direction | speed MPH | gust MPH | rain 1hr in | rain 24hr in | rain mn in | humidity % | barometer mb |
| 20260509090030 | 45 | 58 | 0.0 | 0.0 | 0.00 | 0.00 | 0.00 | 1 | 1011.0 |
| 20260509085525 | 45 | 58 | 0.0 | 0.0 | 0.00 | 0.00 | 0.00 | 1 | 1011.2 |
| 20260509085019 | 46 | 58 | 0.0 | 0.0 | 0.00 | 0.00 | 0.00 | 1 | 1011.3 |
| 20260509084513 | 46 | 58 | 0.0 | 0.0 | 0.00 | 0.00 | 0.00 | 1 | 1011.4 |
| 20260509084230 | 46 | 58 | 0.0 | 0.0 | 0.00 | 0.00 | 0.00 | 1 | 1011.4 |
| 20260509083719 | 46 | 58 | 0.0 | 0.0 | 0.00 | 0.00 | 0.00 | 1 | 1011.2 |
| 20260509082954 | 46 | 58 | 0.0 | 0.0 | 0.00 | 0.00 | 0.00 | 1 | 1011.2 |
| 20260509082448 | 46 | 58 | 0.0 | 0.0 | 0.00 | 0.00 | 0.00 | 1 | 1011.2 |
| 20260509081943 | 46 | 58 | 0.0 | 0.0 | 0.00 | 0.00 | 0.00 | 1 | 1011.1 |
| 20260509081437 | 46 | 58 | 0.0 | 0.0 | 0.00 | 0.00 | 0.00 | 1 | 1011.0 |
| 20260509080931 | 46 | 58 | 0.0 | 0.0 | 0.00 | 0.00 | 0.00 | 1 | 1010.8 |
| 20260509080425 | 46 | 58 | 0.0 | 0.0 | 0.00 | 0.00 | 0.00 | 1 | 1010.7 |
| 20260509075919 | 46 | 58 | 0.0 | 0.0 | 0.00 | 0.00 | 0.00 | 1 | 1010.8 |
| 20260509075412 | 46 | 58 | 0.0 | 0.0 | 0.00 | 0.00 | 0.00 | 1 | 1010.9 |
| 20260509074907 | 46 | 58 | 0.0 | 0.0 | 0.00 | 0.00 | 0.00 | 1 | 1010.8 |
| 20260509074401 | 46 | 58 | 0.0 | 0.0 | 0.00 | 0.00 | 0.00 | 1 | 1010.9 |
| 20260509073854 | 46 | 58 | 0.0 | 2.0 | 0.00 | 0.00 | 0.00 | 1 | 1010.9 |
| 20260509073832 | 46 | 58 | 0.0 | 2.0 | 0.00 | 0.00 | 0.00 | 1 | 1010.9 |
| 20260509072840 | 45 | 58 | 0.0 | 0.0 | 0.00 | 0.00 | 0.00 | 1 | 1010.8 |
| 20260509072553 | 45 | 58 | 0.0 | 0.0 | 0.00 | 0.00 | 0.00 | 1 | 1010.8 |
| 20260509071829 | 45 | 58 | 0.0 | 0.0 | 0.00 | 0.00 | 0.00 | 1 | 1010.7 |
| 20260509071322 | 46 | 58 | 0.0 | 0.0 | 0.00 | 0.00 | 0.00 | 1 | 1010.8 |
| 20260509070817 | 47 | 58 | 0.0 | 0.0 | 0.00 | 0.00 | 0.00 | 1 | 1010.8 |
| 20260509070311 | 48 | 58 | 0.0 | 0.0 | 0.00 | 0.00 | 0.00 | 1 | 1010.9 |
| 20260509065805 | 48 | 58 | 0.0 | 0.0 | 0.00 | 0.00 | 0.00 | 1 | 1010.8 |
| 20260509065258 | 48 | 58 | 0.0 | 1.0 | 0.00 | 0.00 | 0.00 | 1 | 1010.8 |
| 20260509064753 | 48 | 58 | 0.0 | 1.0 | 0.00 | 0.00 | 0.00 | 14 | 1010.7 |
| 20260509064247 | 48 | 58 | 0.0 | 1.0 | 0.00 | 0.00 | 0.00 | 22 | 1010.6 |
| 20260509063742 | 48 | 58 | 0.0 | 0.0 | 0.00 | 0.00 | 0.00 | 26 | 1010.5 |
| 20260509063457 | 48 | 57 | 0.0 | 0.0 | 0.00 | 0.00 | 0.00 | 23 | 1010.6 |
| 20260509062729 | 48 | 57 | 0.0 | 0.0 | 0.00 | 0.00 | 0.00 | 18 | 1010.6 |
| 20260509062223 | 48 | 58 | 0.0 | 0.0 | 0.00 | 0.00 | 0.00 | 17 | 1010.7 |
| 20260509061717 | 48 | 57 | 0.0 | 4.0 | 0.00 | 0.00 | 0.00 | 17 | 1010.8 |
| 20260509061210 | 48 | 57 | 0.0 | 4.0 | 0.00 | 0.00 | 0.00 | 13 | 1010.7 |
| 20260509060705 | 48 | 69 | 0.0 | 0.0 | 0.00 | 0.00 | 0.00 | 14 | 1010.7 |
| 20260509060159 | 48 | 74 | 0.0 | 0.0 | 0.00 | 0.00 | 0.00 | 13 | 1010.6 |
| 20260509055853 | 47 | 0 | 0.0 | 4.0 | 0.00 | 0.00 | 0.00 | 6 | 1010.8 |
| 20260509055736 | 47 | 75 | 0.0 | 4.0 | 0.00 | 0.00 | 0.00 | 10 | 1010.7 |
| 20260509054903 | 47 | 304 | 0.0 | 0.0 | 0.00 | 0.00 | 0.00 | 1 | 1010.8 |
| 20260509054136 | 47 | 300 | 0.0 | 0.0 | 0.00 | 0.00 | 0.00 | 1 | 1010.9 |
| 20260509053629 | 47 | 300 | 0.0 | 0.0 | 0.00 | 0.00 | 0.00 | 1 | 1010.9 |
| 20260509053124 | 46 | 300 | 0.0 | 1.0 | 0.00 | 0.00 | 0.00 | 1 | 1010.9 |
| 20260509052617 | 46 | 300 | 0.0 | 1.0 | 0.00 | 0.00 | 0.00 | 1 | 1011.1 |
| 20260509052111 | 46 | 300 | 0.0 | 0.0 | 0.00 | 0.00 | 0.00 | 1 | 1011.1 |
| 20260509051605 | 46 | 300 | 0.0 | 0.0 | 0.00 | 0.00 | 0.00 | 1 | 1011.1 |
| 20260509051315 | 46 | 300 | 0.0 | 0.0 | 0.00 | 0.00 | 0.00 | 1 | 1011.0 |
| 20260509050552 | 46 | 300 | 0.0 | 0.0 | 0.00 | 0.00 | 0.00 | 1 | 1011.0 |
| 20260509050047 | 46 | 300 | 0.0 | 0.0 | 0.00 | 0.00 | 0.00 | 1 | 1011.0 |
| 20260509045541 | 46 | 300 | 0.0 | 0.0 | 0.00 | 0.00 | 0.00 | 1 | 1011.0 |
| 20260509045035 | 46 | 300 | 0.0 | 0.0 | 0.00 | 0.00 | 0.00 | 1 | 1011.1 |
| 20260509044529 | 46 | 300 | 0.0 | 0.0 | 0.00 | 0.00 | 0.00 | 1 | 1011.2 |
| 20260509044023 | 46 | 300 | 0.0 | 0.0 | 0.00 | 0.00 | 0.00 | 1 | 1011.2 |
| 20260509043958 | 46 | 300 | 0.0 | 0.0 | 0.00 | 0.00 | 0.00 | 1 | 1011.2 |
| 20260509043012 | 46 | 300 | 0.0 | 0.0 | 0.00 | 0.00 | 0.00 | 1 | 1011.2 |
| 20260509042504 | 46 | 300 | 0.0 | 0.0 | 0.00 | 0.00 | 0.00 | 1 | 1011.1 |
| 20260509041959 | 46 | 300 | 0.0 | 0.0 | 0.00 | 0.00 | 0.00 | 1 | 1011.2 |
| 20260509041453 | 46 | 300 | 0.0 | 0.0 | 0.00 | 0.00 | 0.00 | 1 | 1011.2 |
| 20260509040950 | 46 | 300 | 0.0 | 0.0 | 0.00 | 0.00 | 0.00 | 1 | 1011.2 |
| 20260509040450 | 46 | 300 | 0.0 | 0.0 | 0.00 | 0.00 | 0.00 | 1 | 1011.1 |
| 20260509035948 | 46 | 300 | 0.0 | 0.0 | 0.00 | 0.00 | 0.00 | 1 | 1011.0 |
| 20260509035446 | 46 | 300 | 0.0 | 0.0 | 0.00 | 0.00 | 0.00 | 1 | 1011.1 |
| 20260509034946 | 45 | 300 | 0.0 | 0.0 | 0.00 | 0.00 | 0.00 | 1 | 1011.0 |
| 20260509034446 | 45 | 300 | 0.0 | 0.0 | 0.00 | 0.00 | 0.00 | 1 | 1011.0 |
| 20260509033943 | 45 | 300 | 0.0 | 0.0 | 0.00 | 0.00 | 0.00 | 1 | 1011.0 |
| 20260509033441 | 45 | 300 | 0.0 | 0.0 | 0.00 | 0.00 | 0.00 | 1 | 1011.0 |
| 20260509032940 | 44 | 300 | 0.0 | 0.0 | 0.00 | 0.00 | 0.00 | 1 | 1011.0 |
| 20260509032440 | 44 | 300 | 0.0 | 0.0 | 0.00 | 0.00 | 0.00 | 1 | 1010.9 |
| 20260509031939 | 44 | 300 | 0.0 | 0.0 | 0.00 | 0.00 | 0.00 | 1 | 1010.9 |
| 20260509031437 | 44 | 300 | 0.0 | 0.0 | 0.00 | 0.00 | 0.00 | 1 | 1010.9 |
| 20260509030935 | 44 | 300 | 0.0 | 0.0 | 0.00 | 0.00 | 0.00 | 1 | 1010.9 |
| 20260509030436 | 44 | 300 | 0.0 | 0.0 | 0.00 | 0.00 | 0.00 | 1 | 1010.9 |
| 20260509025934 | 45 | 300 | 0.0 | 0.0 | 0.00 | 0.00 | 0.00 | 1 | 1010.9 |
| 20260509025657 | 45 | 300 | 0.0 | 0.0 | 0.00 | 0.00 | 0.00 | 1 | 1010.8 |
| 20260509024933 | 45 | 300 | 0.0 | 0.0 | 0.00 | 0.00 | 0.00 | 1 | 1010.8 |
| 20260509024655 | 45 | 300 | 0.0 | 0.0 | 0.00 | 0.00 | 0.00 | 1 | 1010.8 |
| 20260509024419 | 45 | 300 | 0.0 | 0.0 | 0.00 | 0.00 | 0.00 | 1 | 1010.8 |
| 20260509023426 | 45 | 300 | 0.0 | 0.0 | 0.00 | 0.00 | 0.00 | 1 | 1010.8 |
| 20260509023401 | 45 | 300 | 0.0 | 0.0 | 0.00 | 0.00 | 0.00 | 1 | 1010.8 |
| 20260509022640 | 45 | 300 | 0.0 | 0.0 | 0.00 | 0.00 | 0.00 | 1 | 1010.8 |
| 20260509021922 | 46 | 300 | 0.0 | 0.0 | 0.00 | 0.00 | 0.00 | 1 | 1010.9 |
| 20260509021420 | 46 | 300 | 0.0 | 0.0 | 0.00 | 0.00 | 0.00 | 1 | 1011.0 |
| 20260509020918 | 46 | 300 | 0.0 | 0.0 | 0.00 | 0.00 | 0.00 | 1 | 1011.0 |
| 20260509020417 | 46 | 300 | 0.0 | 0.0 | 0.00 | 0.00 | 0.00 | 1 | 1010.9 |
| 20260509015917 | 46 | 300 | 0.0 | 0.0 | 0.00 | 0.00 | 0.00 | 1 | 1010.9 |
| 20260509015418 | 46 | 300 | 0.0 | 0.0 | 0.00 | 0.00 | 0.00 | 1 | 1010.7 |
| 20260509014918 | 46 | 300 | 0.0 | 0.0 | 0.00 | 0.00 | 0.00 | 1 | 1010.6 |
| 20260509014418 | 46 | 300 | 0.0 | 0.0 | 0.00 | 0.00 | 0.00 | 9 | 1010.6 |
| 20260509013914 | 47 | 300 | 0.0 | 0.0 | 0.00 | 0.00 | 0.00 | 9 | 1010.6 |
| 20260509013413 | 47 | 300 | 0.0 | 0.0 | 0.00 | 0.00 | 0.00 | 6 | 1010.5 |
| 20260509013407 | 47 | 300 | 0.0 | 0.0 | 0.00 | 0.00 | 0.00 | 12 | 1010.4 |
| 20260509012414 | 47 | 300 | 0.0 | 0.0 | 0.00 | 0.00 | 0.00 | 19 | 1010.3 |
| 20260509011913 | 47 | 300 | 0.0 | 0.0 | 0.00 | 0.00 | 0.00 | 31 | 1010.3 |
| 20260509011414 | 48 | 300 | 0.0 | 0.0 | 0.00 | 0.00 | 0.00 | 28 | 1010.1 |
| 20260509011132 | 48 | 300 | 0.0 | 0.0 | 0.00 | 0.00 | 0.00 | 29 | 1010.2 |
| 20260509010414 | 49 | 300 | 0.0 | 0.0 | 0.00 | 0.00 | 0.00 | 26 | 1010.1 |
| 20260509010139 | 49 | 300 | 0.0 | 0.0 | 0.00 | 0.00 | 0.00 | 24 | 1009.9 |
| 20260509005410 | 50 | 300 | 0.0 | 0.0 | 0.00 | 0.00 | 0.00 | 22 | 1009.8 |
| 20260509005132 | 50 | 300 | 0.0 | 0.0 | 0.00 | 0.00 | 0.00 | 32 | 1009.7 |
| 20260509004632 | 50 | 300 | 0.0 | 0.0 | 0.00 | 0.00 | 0.00 | 37 | 1009.6 |
| 20260509003910 | 51 | 300 | 0.0 | 0.0 | 0.00 | 0.00 | 0.00 | 45 | 1009.5 |
| 20260509003409 | 51 | 300 | 0.0 | 0.0 | 0.00 | 0.00 | 0.00 | 48 | 1009.4 |
| 20260509002910 | 52 | 300 | 0.0 | 0.0 | 0.00 | 0.00 | 0.00 | 51 | 1009.4 |
| 20260509002409 | 53 | 300 | 0.0 | 0.0 | 0.00 | 0.00 | 0.00 | 51 | 1009.3 |
| 20260509001907 | 54 | 300 | 0.0 | 0.0 | 0.00 | 0.00 | 0.00 | 49 | 1009.3 |
| 20260509001405 | 54 | 300 | 0.0 | 0.0 | 0.00 | 0.00 | 0.00 | 51 | 1009.2 |
| 20260509000904 | 55 | 0 | 0.0 | 0.0 | 0.00 | 0.00 | 0.00 | 47 | 1009.3 |
| 20260509000358 | 56 | 300 | 0.0 | 0.0 | 0.00 | 0.00 | 0.00 | 48 | 1009.3 |
| 20260508235854 | 56 | 300 | 0.0 | 0.0 | 0.00 | 0.00 | 0.00 | 50 | 1009.4 |
| 20260508235353 | 57 | 300 | 0.0 | 0.0 | 0.00 | 0.00 | 0.00 | 49 | 1009.2 |
| 20260508234851 | 58 | 279 | 0.0 | 0.0 | 0.00 | 0.00 | 0.00 | 43 | 1009.2 |
| 20260508234351 | 58 | 279 | 0.0 | 0.0 | 0.00 | 0.00 | 0.00 | 41 | 1009.0 |
| 20260508233850 | 58 | 279 | 0.0 | 0.0 | 0.00 | 0.00 | 0.00 | 41 | 1009.0 |
| 20260508233347 | 59 | 279 | 0.0 | 0.0 | 0.00 | 0.00 | 0.00 | 39 | 1008.9 |
| 20260508232847 | 59 | 279 | 0.0 | 0.0 | 0.00 | 0.00 | 0.00 | 37 | 1008.9 |
| 20260508232609 | 60 | 279 | 0.0 | 0.0 | 0.00 | 0.00 | 0.00 | 36 | 1008.8 |
| 20260508232047 | 60 | 280 | 0.0 | 0.0 | 0.00 | 0.00 | 0.00 | 36 | 1008.7 |
| 20260508231929 | 60 | 279 | 0.0 | 0.0 | 0.00 | 0.00 | 0.00 | 37 | 1008.8 |
| 20260508230845 | 59 | 280 | 0.0 | 0.0 | 0.00 | 0.00 | 0.00 | 36 | 1008.7 |
| 20260508230343 | 59 | 279 | 0.0 | 0.0 | 0.00 | 0.00 | 0.00 | 37 | 1008.6 |
| 20260508225841 | 60 | 279 | 0.0 | 4.0 | 0.00 | 0.00 | 0.00 | 35 | 1008.6 |
| 20260508225338 | 60 | 309 | 0.0 | 5.0 | 0.00 | 0.00 | 0.00 | 36 | 1008.6 |
| 20260508225108 | 60 | 312 | 0.0 | 5.0 | 0.00 | 0.00 | 0.00 | 35 | 1008.5 |
| 20260508224337 | 61 | 241 | 0.0 | 4.0 | 0.00 | 0.00 | 0.00 | 35 | 1008.5 |
| 20260508223837 | 60 | 278 | 0.0 | 2.0 | 0.00 | 0.00 | 0.00 | 35 | 1008.5 |
| 20260508223336 | 60 | 273 | 0.0 | 4.0 | 0.00 | 0.00 | 0.00 | 35 | 1008.4 |
| 20260508222833 | 61 | 313 | 0.0 | 4.0 | 0.00 | 0.00 | 0.00 | 36 | 1008.5 |
| 20260508222334 | 61 | 326 | 0.0 | 2.0 | 0.00 | 0.00 | 0.00 | 35 | 1008.5 |
| 20260508221833 | 61 | 306 | 0.0 | 2.0 | 0.00 | 0.00 | 0.00 | 35 | 1008.5 |
| 20260508221330 | 61 | 9 | 0.0 | 7.0 | 0.00 | 0.00 | 0.00 | 35 | 1008.4 |
| 20260508220830 | 61 | 304 | 1.0 | 7.0 | 0.00 | 0.00 | 0.00 | 35 | 1008.5 |
| 20260508220330 | 60 | 260 | 1.0 | 13.0 | 0.00 | 0.00 | 0.00 | 34 | 1008.4 |
| 20260508215830 | 61 | 319 | 1.0 | 13.0 | 0.00 | 0.00 | 0.00 | 33 | 1008.5 |
| 20260508215330 | 61 | 309 | 0.0 | 9.0 | 0.00 | 0.00 | 0.00 | 34 | 1008.4 |
| 20260508215050 | 61 | 285 | 1.0 | 10.0 | 0.00 | 0.00 | 0.00 | 34 | 1008.5 |
| 20260508214328 | 61 | 336 | 1.0 | 10.0 | 0.00 | 0.00 | 0.00 | 35 | 1008.5 |
| 20260508214046 | 61 | 276 | 1.0 | 10.0 | 0.00 | 0.00 | 0.00 | 34 | 1008.4 |
| 20260508213326 | 61 | 273 | 1.0 | 9.0 | 0.00 | 0.00 | 0.00 | 35 | 1008.4 |
| 20260508212826 | 61 | 258 | 1.0 | 9.0 | 0.00 | 0.00 | 0.00 | 36 | 1008.5 |
| 20260508212328 | 61 | 238 | 0.0 | 9.0 | 0.00 | 0.00 | 0.00 | 35 | 1008.5 |
| 20260508211826 | 61 | 10 | 0.0 | 6.0 | 0.00 | 0.00 | 0.00 | 36 | 1008.5 |
| 20260508211326 | 61 | 307 | 0.0 | 12.0 | 0.00 | 0.00 | 0.00 | 36 | 1008.4 |
| 20260508210826 | 61 | 325 | 0.0 | 12.0 | 0.00 | 0.00 | 0.00 | 38 | 1008.5 |
| 20260508210538 | 62 | 269 | 1.0 | 14.0 | 0.00 | 0.00 | 0.00 | 36 | 1008.5 |
| 20260508210039 | 62 | 256 | 1.0 | 14.0 | 0.00 | 0.00 | 0.00 | 36 | 1008.6 |
| 20260508205306 | 62 | 279 | 0.0 | 8.0 | 0.00 | 0.00 | 0.00 | 36 | 1008.6 |
| 20260508204759 | 61 | 325 | 1.0 | 11.0 | 0.00 | 0.00 | 0.00 | 35 | 1008.5 |
| 20260508204253 | 61 | 240 | 1.0 | 12.0 | 0.00 | 0.00 | 0.00 | 36 | 1008.4 |
| 20260508203748 | 61 | 280 | 1.0 | 12.0 | 0.00 | 0.00 | 0.00 | 37 | 1008.4 |
| 20260508203242 | 61 | 294 | 1.0 | 11.0 | 0.00 | 0.00 | 0.00 | 36 | 1008.5 |
| 20260508202735 | 61 | 248 | 1.0 | 9.0 | 0.00 | 0.00 | 0.00 | 36 | 1008.5 |
| 20260508202231 | 61 | 298 | 1.0 | 9.0 | 0.00 | 0.00 | 0.00 | 36 | 1008.5 |
| 20260508201724 | 61 | 315 | 1.0 | 10.0 | 0.00 | 0.00 | 0.00 | 37 | 1008.5 |
| 20260508201218 | 61 | 233 | 1.0 | 15.0 | 0.00 | 0.00 | 0.00 | 38 | 1008.5 |
| 20260508200711 | 60 | 36 | 1.0 | 15.0 | 0.00 | 0.00 | 0.00 | 43 | 1008.4 |
| 20260508200205 | 60 | 285 | 0.0 | 11.0 | 0.00 | 0.00 | 0.00 | 47 | 1008.4 |
| 20260508200139 | 60 | 44 | 1.0 | 16.0 | 0.00 | 0.00 | 0.00 | 46 | 1008.5 |
| 20260508195153 | 61 | 300 | 1.0 | 16.0 | 0.00 | 0.00 | 0.00 | 43 | 1008.6 |
| 20260508194649 | 61 | 262 | 1.0 | 13.0 | 0.00 | 0.00 | 0.00 | 41 | 1008.5 |
| 20260508194142 | 60 | 253 | 0.0 | 8.0 | 0.00 | 0.00 | 0.00 | 44 | 1008.5 |
| 20260508193635 | 60 | 111 | 1.0 | 18.0 | 0.00 | 0.00 | 0.00 | 44 | 1008.5 |
| 20260508193130 | 60 | 46 | 0.0 | 18.0 | 0.00 | 0.00 | 0.00 | 45 | 1008.7 |
| 20260508192624 | 60 | 259 | 0.0 | 7.0 | 0.00 | 0.00 | 0.00 | 44 | 1008.7 |
| 20260508192119 | 59 | 37 | 2.0 | 12.0 | 0.00 | 0.00 | 0.00 | 47 | 1008.6 |
| 20260508191612 | 60 | 19 | 2.0 | 12.0 | 0.00 | 0.00 | 0.00 | 48 | 1008.7 |
| 20260508191105 | 60 | 33 | 1.0 | 11.0 | 0.00 | 0.00 | 0.00 | 44 | 1008.7 |
| 20260508190600 | 60 | 304 | 1.0 | 13.0 | 0.00 | 0.00 | 0.00 | 43 | 1008.7 |
| 20260508190054 | 60 | 261 | 1.0 | 13.0 | 0.00 | 0.00 | 0.00 | 43 | 1008.7 |
| 20260508185548 | 59 | 250 | 0.0 | 8.0 | 0.00 | 0.00 | 0.00 | 45 | 1008.7 |
| 20260508185309 | 59 | 259 | 0.0 | 10.0 | 0.00 | 0.00 | 0.00 | 45 | 1008.6 |
| 20260508184536 | 58 | 259 | 0.0 | 10.0 | 0.00 | 0.00 | 0.00 | 45 | 1008.7 |
| 20260508184030 | 58 | 264 | 0.0 | 8.0 | 0.00 | 0.00 | 0.00 | 47 | 1008.7 |
| 20260508183524 | 58 | 277 | 0.0 | 5.0 | 0.00 | 0.00 | 0.00 | 46 | 1008.7 |
| 20260508183018 | 58 | 342 | 0.0 | 5.0 | 0.00 | 0.00 | 0.00 | 46 | 1008.8 |
| 20260508182512 | 58 | 310 | 1.0 | 12.0 | 0.00 | 0.00 | 0.00 | 47 | 1008.8 |
| 20260508182226 | 58 | 296 | 1.0 | 12.0 | 0.00 | 0.00 | 0.00 | 46 | 1008.9 |
| 20260508181500 | 58 | 287 | 1.0 | 12.0 | 0.00 | 0.00 | 0.00 | 46 | 1009.0 |
| 20260508180954 | 58 | 19 | 1.0 | 12.0 | 0.00 | 0.00 | 0.00 | 47 | 1009.0 |
| 20260508180448 | 57 | 286 | 0.0 | 8.0 | 0.00 | 0.00 | 0.00 | 47 | 1008.9 |
| 20260508175941 | 57 | 230 | 0.0 | 8.0 | 0.00 | 0.00 | 0.00 | 48 | 1009.0 |
| 20260508175436 | 57 | 346 | 0.0 | 8.0 | 0.00 | 0.00 | 0.00 | 48 | 1008.9 |
| 20260508174930 | 57 | 313 | 1.0 | 13.0 | 0.00 | 0.00 | 0.00 | 47 | 1009.0 |
| 20260508174424 | 57 | 296 | 1.0 | 13.0 | 0.00 | 0.00 | 0.00 | 46 | 1009.0 |
| 20260508173917 | 58 | 342 | 1.0 | 10.0 | 0.00 | 0.00 | 0.00 | 46 | 1009.0 |
| 20260508173636 | 58 | 275 | 0.0 | 8.0 | 0.00 | 0.00 | 0.00 | 46 | 1008.7 |
| 20260508172906 | 57 | 266 | 1.0 | 7.0 | 0.00 | 0.00 | 0.00 | 46 | 1008.6 |
| 20260508172621 | 57 | 324 | 1.0 | 13.0 | 0.00 | 0.00 | 0.00 | 46 | 1008.7 |
| 20260508171855 | 57 | 244 | 1.0 | 8.0 | 0.00 | 0.00 | 0.00 | 46 | 1008.7 |
| 20260508171349 | 57 | 257 | 0.0 | 7.0 | 0.00 | 0.00 | 0.00 | 46 | 1008.8 |
| 20260508170841 | 57 | 323 | 0.0 | 4.0 | 0.00 | 0.00 | 0.00 | 47 | 1008.9 |
| 20260508170336 | 56 | 246 | 0.0 | 5.0 | 0.00 | 0.00 | 0.00 | 47 | 1009.1 |
| 20260508170052 | 56 | 63 | 1.0 | 8.0 | 0.00 | 0.00 | 0.00 | 47 | 1009.0 |
| 20260508165544 | 56 | 5 | 0.0 | 8.0 | 0.00 | 0.00 | 0.00 | 47 | 1009.1 |
| 20260508164817 | 56 | 5 | 0.0 | 8.0 | 0.00 | 0.00 | 0.00 | 47 | 1009.1 |
| 20260508164312 | 56 | 278 | 1.0 | 9.0 | 0.00 | 0.00 | 0.00 | 47 | 1009.2 |
| 20260508163806 | 56 | 0 | 1.0 | 10.0 | 0.00 | 0.00 | 0.00 | 47 | 1009.3 |
| 20260508163306 | 55 | 279 | 1.0 | 10.0 | 0.00 | 0.00 | 0.00 | 47 | 1009.2 |
| 20260508162804 | 55 | 279 | 1.0 | 9.0 | 0.00 | 0.00 | 0.00 | 48 | 1009.3 |
| 20260508162306 | 54 | 288 | 0.0 | 5.0 | 0.00 | 0.00 | 0.00 | 48 | 1009.3 |
| 20260508161801 | 54 | 24 | 0.0 | 5.0 | 0.00 | 0.00 | 0.00 | 48 | 1009.5 |
| 20260508161258 | 53 | 274 | 0.0 | 5.0 | 0.00 | 0.00 | 0.00 | 48 | 1009.5 |
| 20260508160758 | 53 | 281 | 1.0 | 8.0 | 0.00 | 0.00 | 0.00 | 48 | 1009.5 |
| 20260508160746 | 54 | 275 | 0.0 | 8.0 | 0.00 | 0.00 | 0.00 | 48 | 1009.5 |
| 20260508155756 | 54 | 240 | 1.0 | 14.0 | 0.00 | 0.00 | 0.00 | 48 | 1009.4 |
| 20260508155254 | 54 | 269 | 1.0 | 14.0 | 0.00 | 0.00 | 0.00 | 48 | 1009.4 |
| 20260508154754 | 54 | 245 | 0.0 | 7.0 | 0.00 | 0.00 | 0.00 | 47 | 1009.2 |
| 20260508154254 | 54 | 279 | 0.0 | 2.0 | 0.00 | 0.00 | 0.00 | 48 | 1009.2 |
| 20260508153752 | 54 | 279 | 0.0 | 2.0 | 0.00 | 0.00 | 0.00 | 48 | 1009.2 |
| 20260508153250 | 55 | 279 | 0.0 | 1.0 | 0.00 | 0.00 | 0.00 | 48 | 1009.1 |
| 20260508152748 | 55 | 279 | 0.0 | 8.0 | 0.00 | 0.00 | 0.00 | 48 | 1009.0 |
| 20260508152248 | 55 | 270 | 0.0 | 8.0 | 0.00 | 0.00 | 0.00 | 46 | 1009.0 |
| 20260508151748 | 56 | 250 | 0.0 | 6.0 | 0.00 | 0.00 | 0.00 | 46 | 1008.9 |
| 20260508151511 | 56 | 301 | 0.0 | 6.0 | 0.00 | 0.00 | 0.00 | 46 | 1009.0 |
| 20260508150748 | 56 | 222 | 0.0 | 8.0 | 0.00 | 0.00 | 0.00 | 46 | 1008.9 |
| 20260508150248 | 56 | 187 | 0.0 | 8.0 | 0.00 | 0.00 | 0.00 | 46 | 1009.0 |
| 20260508145743 | 55 | 305 | 0.0 | 8.0 | 0.00 | 0.00 | 0.00 | 46 | 1008.9 |
| 20260508145243 | 55 | 280 | 0.0 | 8.0 | 0.00 | 0.00 | 0.00 | 46 | 1009.1 |
| 20260508145010 | 55 | 277 | 0.0 | 2.0 | 0.00 | 0.00 | 0.00 | 47 | 1009.2 |
| 20260508144727 | 55 | 268 | 0.0 | 4.0 | 0.00 | 0.00 | 0.00 | 47 | 1009.2 |
| 20260508143742 | 54 | 280 | 0.0 | 4.0 | 0.00 | 0.00 | 0.00 | 46 | 1009.2 |
| 20260508143240 | 54 | 264 | 0.0 | 1.0 | 0.00 | 0.00 | 0.00 | 47 | 1009.3 |
| 20260508142739 | 54 | 264 | 0.0 | 4.0 | 0.00 | 0.00 | 0.00 | 47 | 1009.4 |
| 20260508142240 | 54 | 250 | 0.0 | 8.0 | 0.00 | 0.00 | 0.00 | 46 | 1009.5 |
| 20260508142230 | 54 | 242 | 0.0 | 8.0 | 0.00 | 0.00 | 0.00 | 45 | 1009.6 |
| 20260508141239 | 55 | 163 | 0.0 | 1.0 | 0.00 | 0.00 | 0.00 | 46 | 1009.6 |
| 20260508140740 | 55 | 72 | 0.0 | 1.0 | 0.00 | 0.00 | 0.00 | 45 | 1009.5 |
| 20260508140504 | 54 | 70 | 0.0 | 2.0 | 0.00 | 0.00 | 0.00 | 44 | 1009.6 |
| 20260508135740 | 54 | 71 | 0.0 | 2.0 | 0.00 | 0.00 | 0.00 | 46 | 1009.6 |
| 20260508135238 | 54 | 42 | 0.0 | 1.0 | 0.00 | 0.00 | 0.00 | 45 | 1009.6 |
| 20260508134738 | 54 | 40 | 0.0 | 1.0 | 0.00 | 0.00 | 0.00 | 45 | 1009.6 |
| 20260508134234 | 54 | 39 | 0.0 | 2.0 | 0.00 | 0.00 | 0.00 | 44 | 1009.6 |
| 20260508133733 | 54 | 40 | 0.0 | 2.0 | 0.00 | 0.00 | 0.00 | 44 | 1009.6 |
| 20260508133234 | 53 | 41 | 0.0 | 2.0 | 0.00 | 0.00 | 0.00 | 44 | 1009.6 |
| 20260508133222 | 53 | 42 | 0.0 | 1.0 | 0.00 | 0.00 | 0.00 | 43 | 1009.6 |
| 20260508132234 | 53 | 55 | 0.0 | 0.0 | 0.00 | 0.00 | 0.00 | 40 | 1009.7 |
| 20260508131735 | 53 | 56 | 0.0 | 0.0 | 0.00 | 0.00 | 0.00 | 40 | 1009.7 |
| 20260508131234 | 53 | 54 | 0.0 | 0.0 | 0.00 | 0.00 | 0.00 | 38 | 1009.8 |
| 20260508130734 | 52 | 52 | 0.0 | 0.0 | 0.00 | 0.00 | 0.00 | 41 | 1009.9 |
| 20260508130233 | 52 | 52 | 0.0 | 0.0 | 0.00 | 0.00 | 0.00 | 40 | 1009.9 |
| 20260508125734 | 52 | 52 | 0.0 | 0.0 | 0.00 | 0.00 | 0.00 | 39 | 1009.9 |
| 20260508125450 | 51 | 66 | 0.0 | 4.0 | 0.00 | 0.00 | 0.00 | 28 | 1009.8 |
| 20260508124939 | 51 | 0 | 0.0 | 4.0 | 0.00 | 0.00 | 0.00 | 26 | 1009.8 |
| 20260508124822 | 51 | 69 | 0.0 | 4.0 | 0.00 | 0.00 | 0.00 | 23 | 1009.9 |
| 20260508123732 | 50 | 318 | 0.0 | 4.0 | 0.00 | 0.00 | 0.00 | 16 | 1009.8 |
| 20260508123231 | 50 | 286 | 0.0 | 1.0 | 0.00 | 0.00 | 0.00 | 20 | 1009.8 |
| 20260508122733 | 50 | 306 | 0.0 | 2.0 | 0.00 | 0.00 | 0.00 | 20 | 1009.8 |
| 20260508122232 | 50 | 309 | 0.0 | 3.0 | 0.00 | 0.00 | 0.00 | 15 | 1009.8 |
| 20260508121732 | 50 | 12 | 0.0 | 4.0 | 0.00 | 0.00 | 0.00 | 6 | 1009.9 |
| 20260508121231 | 49 | 250 | 0.0 | 4.0 | 0.00 | 0.00 | 0.00 | 1 | 1010.0 |
| 20260508120727 | 49 | 0 | 0.0 | 2.0 | 0.00 | 0.00 | 0.00 | 1 | 1010.2 |
| 20260508120226 | 48 | 237 | 0.0 | 0.0 | 0.00 | 0.00 | 0.00 | 1 | 1010.3 |
| 20260508115949 | 47 | 237 | 0.0 | 1.0 | 0.00 | 0.00 | 0.00 | 1 | 1010.1 |
| 20260508115226 | 46 | 234 | 0.0 | 1.0 | 0.00 | 0.00 | 0.00 | 1 | 1010.2 |
| 20260508114950 | 46 | 234 | 0.0 | 1.0 | 0.00 | 0.00 | 0.00 | 1 | 1010.1 |
| 20260508114226 | 47 | 0 | 0.0 | 0.0 | 0.00 | 0.00 | 0.00 | 1 | 1010.1 |
| 20260508113726 | 46 | 0 | 0.0 | 0.0 | 0.00 | 0.00 | 0.00 | 1 | 1010.2 |
| 20260508113226 | 46 | 243 | 0.0 | 0.0 | 0.00 | 0.00 | 0.00 | 1 | 1010.1 |
| 20260508112726 | 46 | 0 | 0.0 | 0.0 | 0.00 | 0.00 | 0.00 | 1 | 1010.1 |
| 20260508112227 | 45 | 0 | 0.0 | 0.0 | 0.00 | 0.00 | 0.00 | 1 | 1010.2 |
| 20260508111727 | 45 | 0 | 0.0 | 0.0 | 0.00 | 0.00 | 0.00 | 1 | 1010.3 |
| 20260508111226 | 44 | 0 | 0.0 | 0.0 | 0.00 | 0.00 | 0.00 | 1 | 1010.1 |
| 20260508110725 | 44 | 0 | 0.0 | 0.0 | 0.00 | 0.00 | 0.00 | 1 | 1009.8 |
| 20260508110226 | 43 | 244 | 0.0 | 0.0 | 0.00 | 0.00 | 0.00 | 1 | 1009.7 |
| 20260508105725 | 43 | 243 | 0.0 | 0.0 | 0.00 | 0.00 | 0.00 | 1 | 1009.7 |
| 20260508105225 | 43 | 243 | 0.0 | 0.0 | 0.00 | 0.00 | 0.00 | 1 | 1009.8 |
| 20260508104954 | 43 | 243 | 0.0 | 0.0 | 0.00 | 0.00 | 0.00 | 1 | 1009.6 |
| 20260508104223 | 43 | 243 | 0.0 | 0.0 | 0.00 | 0.00 | 0.00 | 1 | 1009.7 |
| 20260508103723 | 43 | 243 | 0.0 | 0.0 | 0.00 | 0.00 | 0.00 | 1 | 1009.7 |
| 20260508103221 | 43 | 243 | 0.0 | 0.0 | 0.00 | 0.00 | 0.00 | 1 | 1009.7 |
| 20260508102717 | 43 | 243 | 0.0 | 0.0 | 0.00 | 0.00 | 0.00 | 1 | 1009.6 |
| 20260508102215 | 43 | 243 | 0.0 | 0.0 | 0.00 | 0.00 | 0.00 | 1 | 1009.7 |
| 20260508101715 | 43 | 243 | 0.0 | 0.0 | 0.00 | 0.00 | 0.00 | 1 | 1009.6 |
| 20260508101209 | 43 | 243 | 0.0 | 0.0 | 0.00 | 0.00 | 0.00 | 1 | 1009.4 |
| 20260508100703 | 43 | 243 | 0.0 | 0.0 | 0.00 | 0.00 | 0.00 | 1 | 1009.4 |
| 20260508100157 | 43 | 243 | 0.0 | 1.0 | 0.00 | 0.00 | 0.00 | 1 | 1009.5 |
| 20260508095910 | 43 | 243 | 0.0 | 1.0 | 0.00 | 0.00 | 0.00 | 1 | 1009.4 |
| 20260508095145 | 43 | 242 | 0.0 | 0.0 | 0.00 | 0.00 | 0.00 | 1 | 1009.5 |
| 20260508094639 | 43 | 242 | 0.0 | 0.0 | 0.00 | 0.00 | 0.00 | 1 | 1009.4 |
| 20260508094133 | 44 | 242 | 0.0 | 0.0 | 0.00 | 0.00 | 0.00 | 1 | 1009.3 |
| 20260508093849 | 44 | 242 | 0.0 | 0.0 | 0.00 | 0.00 | 0.00 | 1 | 1009.2 |
| 20260508093121 | 44 | 242 | 0.0 | 0.0 | 0.00 | 0.00 | 0.00 | 1 | 1009.2 |
| 20260508092837 | 44 | 242 | 0.0 | 0.0 | 0.00 | 0.00 | 0.00 | 1 | 1009.0 |
| 20260508092109 | 44 | 242 | 0.0 | 0.0 | 0.00 | 0.00 | 0.00 | 1 | 1009.1 |
| 20260508091604 | 44 | 242 | 0.0 | 0.0 | 0.00 | 0.00 | 0.00 | 1 | 1009.2 |
| 20260508091057 | 44 | 242 | 0.0 | 0.0 | 0.00 | 0.00 | 0.00 | 1 | 1009.2 |
| 20260508090551 | 44 | 242 | 0.0 | 0.0 | 0.00 | 0.00 | 0.00 | 1 | 1009.2 |